sensor_id;sensor_type;location;lat;lon;timestamp;pressure;altitude;pressure_sealevel;temperature;humidity
25238;BME280;13185;50.872;5.306;2023-04-21T00:02:03;101035.38;;;7.63;97.91
25238;BME280;13185;50.872;5.306;2023-04-21T00:04:29;101025.69;;;7.61;98.30
25238;BME280;13185;50.872;5.306;2023-04-21T00:06:56;101016.97;;;7.57;98.82
25238;BME280;13185;50.872;5.306;2023-04-21T00:09:26;101016.03;;;7.58;98.92
25238;BME280;13185;50.872;5.306;2023-04-21T00:11:52;101016.03;;;7.58;98.82
25238;BME280;13185;50.872;5.306;2023-04-21T00:14:17;101013.28;;;7.60;98.82
25238;BME280;13185;50.872;5.306;2023-04-21T00:16:43;101006.16;;;7.60;99.04
25238;BME280;13185;50.872;5.306;2023-04-21T00:19:08;101006.16;;;7.60;99.38
25238;BME280;13185;50.872;5.306;2023-04-21T00:21:34;101006.22;;;7.59;99.39
25238;BME280;13185;50.872;5.306;2023-04-21T00:24:00;101000.09;;;7.57;99.26
25238;BME280;13185;50.872;5.306;2023-04-21T00:26:26;100994.69;;;7.58;99.29
25238;BME280;13185;50.872;5.306;2023-04-21T00:28:51;100987.47;;;7.60;99.29
25238;BME280;13185;50.872;5.306;2023-04-21T00:31:17;100992.03;;;7.58;99.50
25238;BME280;13185;50.872;5.306;2023-04-21T00:33:42;100988.56;;;7.56;99.58
25238;BME280;13185;50.872;5.306;2023-04-21T00:36:08;100986.06;;;7.53;99.89
25238;BME280;13185;50.872;5.306;2023-04-21T00:38:33;100992.09;;;7.57;99.78
25238;BME280;13185;50.872;5.306;2023-04-21T00:40:59;101003.56;;;7.59;99.39
25238;BME280;13185;50.872;5.306;2023-04-21T00:43:24;101001.84;;;7.58;99.34
25238;BME280;13185;50.872;5.306;2023-04-21T00:45:52;100995.78;;;7.54;99.88
25238;BME280;13185;50.872;5.306;2023-04-21T00:48:18;100995.78;;;7.54;99.71
25238;BME280;13185;50.872;5.306;2023-04-21T00:50:44;101001.06;;;7.56;99.94
25238;BME280;13185;50.872;5.306;2023-04-21T00:53:10;101000.28;;;7.53;100.00
25238;BME280;13185;50.872;5.306;2023-04-21T00:55:36;101005.81;;;7.49;100.00
25238;BME280;13185;50.872;5.306;2023-04-21T00:58:02;100996.09;;;7.48;100.00
25238;BME280;13185;50.872;5.306;2023-04-21T01:00:28;100997.03;;;7.47;100.00
25238;BME280;13185;50.872;5.306;2023-04-21T01:02:55;100998.84;;;7.46;100.00
25238;BME280;13185;50.872;5.306;2023-04-21T01:05:21;100991.69;;;7.47;100.00
25238;BME280;13185;50.872;5.306;2023-04-21T01:07:48;101001.50;;;7.46;100.00
25238;BME280;13185;50.872;5.306;2023-04-21T01:10:14;100991.78;;;7.45;100.00
25238;BME280;13185;50.872;5.306;2023-04-21T01:12:43;100993.56;;;7.45;100.00
25238;BME280;13185;50.872;5.306;2023-04-21T01:15:13;100987.38;;;7.44;100.00
25238;BME280;13185;50.872;5.306;2023-04-21T01:17:40;100991.78;;;7.45;100.00
25238;BME280;13185;50.872;5.306;2023-04-21T01:20:13;100988.31;;;7.43;100.00
25238;BME280;13185;50.872;5.306;2023-04-21T01:22:40;100990.13;;;7.43;100.00
25238;BME280;13185;50.872;5.306;2023-04-21T01:25:07;100990.13;;;7.43;100.00
25238;BME280;13185;50.872;5.306;2023-04-21T01:27:34;100985.81;;;7.40;100.00
25238;BME280;13185;50.872;5.306;2023-04-21T01:30:01;100984.06;;;7.39;100.00
25238;BME280;13185;50.872;5.306;2023-04-21T01:32:28;100986.81;;;7.38;100.00
25238;BME280;13185;50.872;5.306;2023-04-21T01:34:56;100977.00;;;7.38;100.00
25238;BME280;13185;50.872;5.306;2023-04-21T01:37:25;100984.13;;;7.38;100.00
25238;BME280;13185;50.872;5.306;2023-04-21T01:39:54;100990.41;;;7.37;100.00
25238;BME280;13185;50.872;5.306;2023-04-21T01:42:22;100986.09;;;7.34;100.00
25238;BME280;13185;50.872;5.306;2023-04-21T01:44:48;100977.25;;;7.34;100.00
25238;BME280;13185;50.872;5.306;2023-04-21T01:47:16;100988.69;;;7.36;100.00
25238;BME280;13185;50.872;5.306;2023-04-21T01:49:42;100979.75;;;7.37;100.00
25238;BME280;13185;50.872;5.306;2023-04-21T01:52:07;100983.44;;;7.34;100.00
25238;BME280;13185;50.872;5.306;2023-04-21T01:54:33;100990.50;;;7.35;100.00
25238;BME280;13185;50.872;5.306;2023-04-21T01:56:59;100972.75;;;7.34;100.00
25238;BME280;13185;50.872;5.306;2023-04-21T01:59:26;100970.19;;;7.33;100.00
25238;BME280;13185;50.872;5.306;2023-04-21T02:01:52;100957.00;;;7.30;100.00
25238;BME280;13185;50.872;5.306;2023-04-21T02:04:17;100951.66;;;7.30;100.00
25238;BME280;13185;50.872;5.306;2023-04-21T02:06:43;100966.78;;;7.29;100.00
25238;BME280;13185;50.872;5.306;2023-04-21T02:09:08;100965.06;;;7.28;100.00
25238;BME280;13185;50.872;5.306;2023-04-21T02:11:34;100971.41;;;7.26;100.00
25238;BME280;13185;50.872;5.306;2023-04-21T02:14:00;100966.94;;;7.26;100.00
25238;BME280;13185;50.872;5.306;2023-04-21T02:16:25;100959.88;;;7.25;100.00
25238;BME280;13185;50.872;5.306;2023-04-21T02:18:55;100962.47;;;7.27;100.00
25238;BME280;13185;50.872;5.306;2023-04-21T02:21:26;100971.25;;;7.29;100.00
25238;BME280;13185;50.872;5.306;2023-04-21T02:23:51;100960.66;;;7.27;100.00
25238;BME280;13185;50.872;5.306;2023-04-21T02:26:18;100964.28;;;7.26;100.00
25238;BME280;13185;50.872;5.306;2023-04-21T02:28:44;100967.88;;;7.25;100.00
25238;BME280;13185;50.872;5.306;2023-04-21T02:31:09;100966.94;;;7.26;100.00
25238;BME280;13185;50.872;5.306;2023-04-21T02:33:35;100955.47;;;7.24;100.00
25238;BME280;13185;50.872;5.306;2023-04-21T02:36:01;100949.38;;;7.22;100.00
25238;BME280;13185;50.872;5.306;2023-04-21T02:38:26;100951.25;;;7.20;100.00
25238;BME280;13185;50.872;5.306;2023-04-21T02:40:52;100943.47;;;7.15;100.00
25238;BME280;13185;50.872;5.306;2023-04-21T02:43:17;100947.94;;;7.15;100.00
25238;BME280;13185;50.872;5.306;2023-04-21T02:45:43;100948.00;;;7.13;100.00
25238;BME280;13185;50.872;5.306;2023-04-21T02:48:09;100943.63;;;7.12;100.00
25238;BME280;13185;50.872;5.306;2023-04-21T02:50:35;100946.28;;;7.12;100.00
25238;BME280;13185;50.872;5.306;2023-04-21T02:53:00;100939.06;;;7.14;100.00
25238;BME280;13185;50.872;5.306;2023-04-21T02:55:26;100936.47;;;7.13;100.00
25238;BME280;13185;50.872;5.306;2023-04-21T02:57:52;100933.91;;;7.11;100.00
25238;BME280;13185;50.872;5.306;2023-04-21T03:00:20;100931.34;;;7.08;100.00
25238;BME280;13185;50.872;5.306;2023-04-21T03:02:46;100939.50;;;7.05;100.00
25238;BME280;13185;50.872;5.306;2023-04-21T03:05:12;100935.28;;;7.01;100.00
25238;BME280;13185;50.872;5.306;2023-04-21T03:07:37;100933.69;;;6.97;100.00
25238;BME280;13185;50.872;5.306;2023-04-21T03:10:04;100927.72;;;6.92;100.00
25238;BME280;13185;50.872;5.306;2023-04-21T03:12:31;100927.88;;;6.89;100.00
25238;BME280;13185;50.872;5.306;2023-04-21T03:14:56;100930.69;;;6.86;100.00
25238;BME280;13185;50.872;5.306;2023-04-21T03:17:22;100922.84;;;6.83;100.00
25238;BME280;13185;50.872;5.306;2023-04-21T03:19:47;100930.06;;;6.81;100.00
25238;BME280;13185;50.872;5.306;2023-04-21T03:22:13;100922.34;;;6.75;100.00
25238;BME280;13185;50.872;5.306;2023-04-21T03:24:39;100916.38;;;6.70;100.00
25238;BME280;13185;50.872;5.306;2023-04-21T03:27:05;100920.84;;;6.69;100.00
25238;BME280;13185;50.872;5.306;2023-04-21T03:29:30;100917.44;;;6.65;100.00
25238;BME280;13185;50.872;5.306;2023-04-21T03:31:56;100917.59;;;6.62;100.00
25238;BME280;13185;50.872;5.306;2023-04-21T03:34:23;100919.56;;;6.59;100.00
25238;BME280;13185;50.872;5.306;2023-04-21T03:36:49;100916.31;;;6.52;100.00
25238;BME280;13185;50.872;5.306;2023-04-21T03:39:14;100925.31;;;6.50;100.00
25238;BME280;13185;50.872;5.306;2023-04-21T03:41:41;100920.91;;;6.49;100.00
25238;BME280;13185;50.872;5.306;2023-04-21T03:44:08;100917.47;;;6.47;100.00
25238;BME280;13185;50.872;5.306;2023-04-21T03:46:33;100914.81;;;6.47;100.00
25238;BME280;13185;50.872;5.306;2023-04-21T03:48:59;100910.47;;;6.44;100.00
25238;BME280;13185;50.872;5.306;2023-04-21T03:51:24;100902.63;;;6.41;100.00
25238;BME280;13185;50.872;5.306;2023-04-21T03:53:51;100902.00;;;6.36;100.00
25238;BME280;13185;50.872;5.306;2023-04-21T03:56:17;100909.09;;;6.35;100.00
25238;BME280;13185;50.872;5.306;2023-04-21T03:58:42;100902.03;;;6.34;100.00
25238;BME280;13185;50.872;5.306;2023-04-21T04:01:08;100907.50;;;6.31;100.00
25238;BME280;13185;50.872;5.306;2023-04-21T04:03:34;100915.56;;;6.30;100.00
25238;BME280;13185;50.872;5.306;2023-04-21T04:05:59;100921.75;;;6.30;100.00
25238;BME280;13185;50.872;5.306;2023-04-21T04:08:25;100914.00;;;6.26;100.00
25238;BME280;13185;50.872;5.306;2023-04-21T04:10:50;100914.88;;;6.26;100.00
25238;BME280;13185;50.872;5.306;2023-04-21T04:13:16;100915.81;;;6.25;100.00
25238;BME280;13185;50.872;5.306;2023-04-21T04:15:42;100922.19;;;6.21;100.00
25238;BME280;13185;50.872;5.306;2023-04-21T04:18:08;100925.72;;;6.22;100.00
25238;BME280;13185;50.872;5.306;2023-04-21T04:20:34;100919.59;;;6.20;100.00
25238;BME280;13185;50.872;5.306;2023-04-21T04:22:59;100918.81;;;6.18;100.00
25238;BME280;13185;50.872;5.306;2023-04-21T04:25:25;100918.94;;;6.15;100.00
25238;BME280;13185;50.872;5.306;2023-04-21T04:27:51;100923.34;;;6.16;100.00
25238;BME280;13185;50.872;5.306;2023-04-21T04:30:17;100922.41;;;6.17;100.00
25238;BME280;13185;50.872;5.306;2023-04-21T04:32:43;100921.47;;;6.18;100.00
25238;BME280;13185;50.872;5.306;2023-04-21T04:35:09;100920.69;;;6.16;100.00
25238;BME280;13185;50.872;5.306;2023-04-21T04:37:35;100930.41;;;6.17;100.00
25238;BME280;13185;50.872;5.306;2023-04-21T04:40:02;100931.34;;;6.16;100.00
25238;BME280;13185;50.872;5.306;2023-04-21T04:42:31;100932.25;;;6.15;100.00
25238;BME280;13185;50.872;5.306;2023-04-21T04:44:57;100921.66;;;6.13;100.00
25238;BME280;13185;50.872;5.306;2023-04-21T04:47:26;100930.59;;;6.12;100.00
25238;BME280;13185;50.872;5.306;2023-04-21T04:49:51;100933.31;;;6.11;100.00
25238;BME280;13185;50.872;5.306;2023-04-21T04:52:17;100941.25;;;6.12;100.00
25238;BME280;13185;50.872;5.306;2023-04-21T04:54:42;100947.44;;;6.13;100.00
25238;BME280;13185;50.872;5.306;2023-04-21T04:57:08;100943.13;;;6.10;100.00
25238;BME280;13185;50.872;5.306;2023-04-21T04:59:33;100943.97;;;6.11;100.00
25238;BME280;13185;50.872;5.306;2023-04-21T05:02:01;100946.63;;;6.11;100.00
25238;BME280;13185;50.872;5.306;2023-04-21T05:04:27;100949.38;;;6.09;100.00
25238;BME280;13185;50.872;5.306;2023-04-21T05:06:52;100949.38;;;6.09;100.00
25238;BME280;13185;50.872;5.306;2023-04-21T05:09:18;100954.69;;;6.09;100.00
25238;BME280;13185;50.872;5.306;2023-04-21T05:11:43;100951.09;;;6.10;100.00
25238;BME280;13185;50.872;5.306;2023-04-21T05:14:09;100953.84;;;6.08;100.00
25238;BME280;13185;50.872;5.306;2023-04-21T05:16:35;100960.03;;;6.09;100.00
25238;BME280;13185;50.872;5.306;2023-04-21T05:19:01;100952.81;;;6.11;100.00
25238;BME280;13185;50.872;5.306;2023-04-21T05:21:27;100959.75;;;6.15;100.00
25238;BME280;13185;50.872;5.306;2023-04-21T05:23:55;100955.88;;;6.22;100.00
25238;BME280;13185;50.872;5.306;2023-04-21T05:26:21;100958.34;;;6.27;100.00
25238;BME280;13185;50.872;5.306;2023-04-21T05:28:47;100957.25;;;6.31;100.00
25238;BME280;13185;50.872;5.306;2023-04-21T05:31:14;100960.59;;;6.36;100.00
25238;BME280;13185;50.872;5.306;2023-04-21T05:33:39;100958.84;;;6.35;100.00
25238;BME280;13185;50.872;5.306;2023-04-21T05:36:08;100960.72;;;6.33;100.00
25238;BME280;13185;50.872;5.306;2023-04-21T05:38:35;100950.13;;;6.31;100.00
25238;BME280;13185;50.872;5.306;2023-04-21T05:41:01;100953.66;;;6.32;100.00
25238;BME280;13185;50.872;5.306;2023-04-21T05:43:26;100953.38;;;6.38;100.00
25238;BME280;13185;50.872;5.306;2023-04-21T05:45:52;100942.44;;;6.44;100.00
25238;BME280;13185;50.872;5.306;2023-04-21T05:48:17;100939.66;;;6.47;100.00
25238;BME280;13185;50.872;5.306;2023-04-21T05:50:43;100942.22;;;6.49;100.00
25238;BME280;13185;50.872;5.306;2023-04-21T05:53:08;100951.00;;;6.51;100.00
25238;BME280;13185;50.872;5.306;2023-04-21T05:55:34;100952.31;;;6.61;100.00
25238;BME280;13185;50.872;5.306;2023-04-21T05:58:00;100950.16;;;6.69;100.00
25238;BME280;13185;50.872;5.306;2023-04-21T06:00:25;100952.31;;;6.80;100.00
25238;BME280;13185;50.872;5.306;2023-04-21T06:02:51;100948.13;;;6.93;100.00
25238;BME280;13185;50.872;5.306;2023-04-21T06:05:17;100949.97;;;7.10;100.00
25238;BME280;13185;50.872;5.306;2023-04-21T06:07:43;100941.38;;;7.22;100.00
25238;BME280;13185;50.872;5.306;2023-04-21T06:10:09;100942.72;;;7.31;100.00
25238;BME280;13185;50.872;5.306;2023-04-21T06:12:35;100934.22;;;7.40;100.00
25238;BME280;13185;50.872;5.306;2023-04-21T06:15:01;100937.25;;;7.51;100.00
25238;BME280;13185;50.872;5.306;2023-04-21T06:17:27;100936.69;;;7.62;100.00
25238;BME280;13185;50.872;5.306;2023-04-21T06:19:52;100925.22;;;7.77;100.00
25238;BME280;13185;50.872;5.306;2023-04-21T06:22:19;100937.13;;;7.87;100.00
25238;BME280;13185;50.872;5.306;2023-04-21T06:24:45;100933.31;;;7.93;100.00
25238;BME280;13185;50.872;5.306;2023-04-21T06:27:11;100944.38;;;8.02;100.00
25238;BME280;13185;50.872;5.306;2023-04-21T06:29:37;100937.72;;;8.09;100.00
25238;BME280;13185;50.872;5.306;2023-04-21T06:32:02;100939.59;;;8.25;100.00
25238;BME280;13185;50.872;5.306;2023-04-21T06:34:28;100935.34;;;8.38;100.00
25238;BME280;13185;50.872;5.306;2023-04-21T06:36:54;100933.72;;;8.51;100.00
25238;BME280;13185;50.872;5.306;2023-04-21T06:39:19;100932.16;;;8.63;99.72
25238;BME280;13185;50.872;5.306;2023-04-21T06:41:45;100935.19;;;8.73;98.75
25238;BME280;13185;50.872;5.306;2023-04-21T06:44:10;100937.63;;;8.77;97.34
25238;BME280;13185;50.872;5.306;2023-04-21T06:46:39;100942.63;;;8.83;96.71
25238;BME280;13185;50.872;5.306;2023-04-21T06:49:06;100933.03;;;8.95;96.09
25238;BME280;13185;50.872;5.306;2023-04-21T06:51:32;100935.28;;;9.03;94.84
25238;BME280;13185;50.872;5.306;2023-04-21T06:53:57;100924.81;;;9.14;94.94
25238;BME280;13185;50.872;5.306;2023-04-21T06:56:23;100925.75;;;9.29;95.35
25238;BME280;13185;50.872;5.306;2023-04-21T06:58:48;100918.50;;;9.31;92.40
25238;BME280;13185;50.872;5.306;2023-04-21T07:01:14;100920.75;;;9.38;92.60
25238;BME280;13185;50.872;5.306;2023-04-21T07:03:39;100934.84;;;9.56;92.66
25238;BME280;13185;50.872;5.306;2023-04-21T07:06:05;100923.31;;;9.70;92.50
25238;BME280;13185;50.872;5.306;2023-04-21T07:08:31;100917.22;;;9.82;91.47
25238;BME280;13185;50.872;5.306;2023-04-21T07:10:56;100925.47;;;9.93;89.82
25238;BME280;13185;50.872;5.306;2023-04-21T07:13:22;100927.94;;;9.96;88.01
25238;BME280;13185;50.872;5.306;2023-04-21T07:15:48;100924.31;;;9.97;87.75
25238;BME280;13185;50.872;5.306;2023-04-21T07:18:13;100914.84;;;10.06;88.18
25238;BME280;13185;50.872;5.306;2023-04-21T07:20:39;100916.66;;;10.20;89.08
25238;BME280;13185;50.872;5.306;2023-04-21T07:23:05;100918.91;;;10.27;88.23
25238;BME280;13185;50.872;5.306;2023-04-21T07:25:30;100915.00;;;10.33;88.19
25238;BME280;13185;50.872;5.306;2023-04-21T07:27:56;100918.69;;;10.30;84.67
25238;BME280;13185;50.872;5.306;2023-04-21T07:30:21;100915.47;;;10.25;86.70
25238;BME280;13185;50.872;5.306;2023-04-21T07:32:47;100914.31;;;10.29;88.51
25238;BME280;13185;50.872;5.306;2023-04-21T07:35:12;100920.81;;;10.39;90.79
25238;BME280;13185;50.872;5.306;2023-04-21T07:37:38;100919.47;;;10.47;91.45
25238;BME280;13185;50.872;5.306;2023-04-21T07:40:06;100916.47;;;10.51;90.29
25238;BME280;13185;50.872;5.306;2023-04-21T07:42:32;100920.44;;;10.46;87.74
25238;BME280;13185;50.872;5.306;2023-04-21T07:44:58;100924.19;;;10.43;89.06
25238;BME280;13185;50.872;5.306;2023-04-21T07:47:25;100910.19;;;10.38;87.76
25238;BME280;13185;50.872;5.306;2023-04-21T07:49:51;100915.28;;;10.43;88.75
25238;BME280;13185;50.872;5.306;2023-04-21T07:52:17;100926.25;;;10.52;91.33
25238;BME280;13185;50.872;5.306;2023-04-21T07:54:42;100921.00;;;10.51;87.11
25238;BME280;13185;50.872;5.306;2023-04-21T07:57:08;100920.34;;;10.47;86.24
25238;BME280;13185;50.872;5.306;2023-04-21T07:59:33;100924.72;;;10.48;88.19
25238;BME280;13185;50.872;5.306;2023-04-21T08:01:59;100919.47;;;10.47;86.22
25238;BME280;13185;50.872;5.306;2023-04-21T08:04:25;100913.25;;;10.46;85.96
25238;BME280;13185;50.872;5.306;2023-04-21T08:06:50;100915.81;;;10.48;85.74
25238;BME280;13185;50.872;5.306;2023-04-21T08:09:19;100914.59;;;10.53;85.76
25238;BME280;13185;50.872;5.306;2023-04-21T08:11:44;100920.31;;;10.61;86.36
25238;BME280;13185;50.872;5.306;2023-04-21T08:14:12;100915.34;;;10.55;84.85
25238;BME280;13185;50.872;5.306;2023-04-21T08:16:38;100917.56;;;10.63;87.72
25238;BME280;13185;50.872;5.306;2023-04-21T08:19:06;100907.84;;;10.75;88.72
25238;BME280;13185;50.872;5.306;2023-04-21T08:21:35;100913.75;;;10.80;87.29
25238;BME280;13185;50.872;5.306;2023-04-21T08:24:01;100913.66;;;10.81;86.83
25238;BME280;13185;50.872;5.306;2023-04-21T08:26:27;100913.75;;;10.80;86.09
25238;BME280;13185;50.872;5.306;2023-04-21T08:28:55;100920.56;;;10.85;86.79
25238;BME280;13185;50.872;5.306;2023-04-21T08:31:20;100920.72;;;10.96;83.14
25238;BME280;13185;50.872;5.306;2023-04-21T08:33:46;100919.28;;;11.05;84.00
25238;BME280;13185;50.872;5.306;2023-04-21T08:36:11;100917.84;;;11.26;87.53
25238;BME280;13185;50.872;5.306;2023-04-21T08:38:37;100922.69;;;11.34;83.38
25238;BME280;13185;50.872;5.306;2023-04-21T08:41:04;100914.34;;;11.39;83.44
25238;BME280;13185;50.872;5.306;2023-04-21T08:43:29;100912.00;;;11.47;85.58
25238;BME280;13185;50.872;5.306;2023-04-21T08:45:56;100916.72;;;11.56;84.95
25238;BME280;13185;50.872;5.306;2023-04-21T08:48:22;100915.47;;;11.62;85.10
25238;BME280;13185;50.872;5.306;2023-04-21T08:50:49;100909.34;;;11.60;83.42
25238;BME280;13185;50.872;5.306;2023-04-21T08:53:16;100906.03;;;11.69;85.66
25238;BME280;13185;50.872;5.306;2023-04-21T08:55:42;100905.31;;;11.79;86.59
25238;BME280;13185;50.872;5.306;2023-04-21T08:58:08;100891.78;;;11.81;83.73
25238;BME280;13185;50.872;5.306;2023-04-21T09:00:34;100898.34;;;11.90;85.26
25238;BME280;13185;50.872;5.306;2023-04-21T09:03:00;100895.84;;;11.87;81.80
25238;BME280;13185;50.872;5.306;2023-04-21T09:05:31;100894.78;;;11.89;83.76
25238;BME280;13185;50.872;5.306;2023-04-21T09:08:11;100891.25;;;12.01;83.94
25238;BME280;13185;50.872;5.306;2023-04-21T09:10:50;100877.06;;;11.99;79.20
25238;BME280;13185;50.872;5.306;2023-04-21T09:13:18;100881.13;;;12.05;81.12
25238;BME280;13185;50.872;5.306;2023-04-21T09:15:46;100883.91;;;12.16;82.78
25238;BME280;13185;50.872;5.306;2023-04-21T09:18:13;100875.63;;;12.19;80.60
25238;BME280;13185;50.872;5.306;2023-04-21T09:20:40;100870.34;;;12.18;77.38
25238;BME280;13185;50.872;5.306;2023-04-21T09:23:06;100878.75;;;12.26;79.14
25238;BME280;13185;50.872;5.306;2023-04-21T09:25:33;100883.81;;;12.30;79.10
25238;BME280;13185;50.872;5.306;2023-04-21T09:27:59;100879.56;;;12.39;79.42
25238;BME280;13185;50.872;5.306;2023-04-21T09:30:25;100886.34;;;12.45;79.29
25238;BME280;13185;50.872;5.306;2023-04-21T09:32:55;100881.47;;;12.62;80.63
25238;BME280;13185;50.872;5.306;2023-04-21T09:35:22;100879.28;;;12.67;79.60
25238;BME280;13185;50.872;5.306;2023-04-21T09:37:47;100871.06;;;12.82;81.89
25238;BME280;13185;50.872;5.306;2023-04-21T09:40:13;100869.69;;;12.76;74.13
25238;BME280;13185;50.872;5.306;2023-04-21T09:42:40;100862.47;;;12.77;76.76
25238;BME280;13185;50.872;5.306;2023-04-21T09:45:07;100867.91;;;12.88;76.11
25238;BME280;13185;50.872;5.306;2023-04-21T09:47:39;100861.06;;;13.08;79.68
25238;BME280;13185;50.872;5.306;2023-04-21T09:50:07;100860.25;;;13.18;76.26
25238;BME280;13185;50.872;5.306;2023-04-21T09:52:38;100856.38;;;13.22;74.36
25238;BME280;13185;50.872;5.306;2023-04-21T09:55:10;100855.47;;;13.35;78.39
25238;BME280;13185;50.872;5.306;2023-04-21T09:57:38;100855.88;;;13.64;79.96
25238;BME280;13185;50.872;5.306;2023-04-21T10:00:08;100846.81;;;13.65;74.41
25238;BME280;13185;50.872;5.306;2023-04-21T10:02:42;100845.63;;;13.69;74.83
25238;BME280;13185;50.872;5.306;2023-04-21T10:05:09;100842.53;;;13.62;70.31
25238;BME280;13185;50.872;5.306;2023-04-21T10:07:34;100848.28;;;13.57;71.09
25238;BME280;13185;50.872;5.306;2023-04-21T10:10:00;100851.72;;;13.60;72.68
25238;BME280;13185;50.872;5.306;2023-04-21T10:12:27;100843.41;;;13.74;75.77
25238;BME280;13185;50.872;5.306;2023-04-21T10:14:54;100843.41;;;13.74;71.83
25238;BME280;13185;50.872;5.306;2023-04-21T10:17:25;100839.38;;;13.79;71.21
25238;BME280;13185;50.872;5.306;2023-04-21T10:19:55;100843.69;;;13.93;73.62
25238;BME280;13185;50.872;5.306;2023-04-21T10:22:27;100834.41;;;14.08;73.00
25238;BME280;13185;50.872;5.306;2023-04-21T10:24:57;100836.09;;;14.09;69.79
25238;BME280;13185;50.872;5.306;2023-04-21T10:27:42;100835.47;;;14.06;69.59
25238;BME280;13185;50.872;5.306;2023-04-21T10:32:43;100814.53;;;14.09;68.23
25238;BME280;13185;50.872;5.306;2023-04-21T10:35:14;100819.66;;;14.24;69.68
25238;BME280;13185;50.872;5.306;2023-04-21T10:37:41;100804.97;;;14.28;63.24
25238;BME280;13185;50.872;5.306;2023-04-21T10:40:34;100799.19;;;14.32;65.39
25238;BME280;13185;50.872;5.306;2023-04-21T10:43:03;100794.88;;;14.52;67.69
25238;BME280;13185;50.872;5.306;2023-04-21T10:45:29;100790.69;;;14.70;65.71
25238;BME280;13185;50.872;5.306;2023-04-21T10:47:58;100786.63;;;14.65;62.69
25238;BME280;13185;50.872;5.306;2023-04-21T10:50:29;100776.81;;;14.64;64.51
25238;BME280;13185;50.872;5.306;2023-04-21T10:55:21;100774.09;;;14.75;59.27
25238;BME280;13185;50.872;5.306;2023-04-21T10:57:47;100759.88;;;14.73;58.30
25238;BME280;13185;50.872;5.306;2023-04-21T11:00:18;100759.00;;;14.72;57.97
25238;BME280;13185;50.872;5.306;2023-04-21T11:02:56;100759.47;;;14.78;60.25
25238;BME280;13185;50.872;5.306;2023-04-21T11:05:39;100751.94;;;14.92;60.13
25238;BME280;13185;50.872;5.306;2023-04-21T11:08:06;100743.28;;;14.98;59.38
25238;BME280;13185;50.872;5.306;2023-04-21T11:10:47;100737.66;;;15.01;58.18
25238;BME280;13185;50.872;5.306;2023-04-21T11:13:13;100727.28;;;15.07;58.61
25238;BME280;13185;50.872;5.306;2023-04-21T11:15:39;100731.34;;;15.12;56.26
25238;BME280;13185;50.872;5.306;2023-04-21T11:18:05;100734.03;;;15.12;57.43
25238;BME280;13185;50.872;5.306;2023-04-21T11:20:33;100719.25;;;15.16;55.46
25238;BME280;13185;50.872;5.306;2023-04-21T11:22:58;100704.97;;;15.25;54.84
25238;BME280;13185;50.872;5.306;2023-04-21T11:25:24;100707.00;;;15.33;55.15
25238;BME280;13185;50.872;5.306;2023-04-21T11:27:57;100710.88;;;15.40;55.94
25238;BME280;13185;50.872;5.306;2023-04-21T11:30:31;100701.53;;;15.44;54.35
25238;BME280;13185;50.872;5.306;2023-04-21T11:33:00;100701.75;;;15.41;54.14
25238;BME280;13185;50.872;5.306;2023-04-21T11:35:26;100697.69;;;15.47;55.42
25238;BME280;13185;50.872;5.306;2023-04-21T11:37:51;100694.56;;;15.51;53.85
25238;BME280;13185;50.872;5.306;2023-04-21T11:40:17;100695.50;;;15.62;53.83
25238;BME280;13185;50.872;5.306;2023-04-21T11:42:43;100696.16;;;15.75;53.36
25238;BME280;13185;50.872;5.306;2023-04-21T11:45:18;100686.22;;;15.85;52.25
25238;BME280;13185;50.872;5.306;2023-04-21T11:47:44;100695.22;;;15.95;52.71
25238;BME280;13185;50.872;5.306;2023-04-21T11:50:10;100691.53;;;16.06;52.19
25238;BME280;13185;50.872;5.306;2023-04-21T11:52:35;100688.56;;;16.19;52.96
25238;BME280;13185;50.872;5.306;2023-04-21T11:55:13;100693.69;;;16.22;52.45
25238;BME280;13185;50.872;5.306;2023-04-21T11:57:42;100688.16;;;16.23;50.85
25238;BME280;13185;50.872;5.306;2023-04-21T12:00:09;100697.72;;;16.27;51.92
25238;BME280;13185;50.872;5.306;2023-04-21T12:02:39;100694.41;;;16.24;49.75
25238;BME280;13185;50.872;5.306;2023-04-21T12:05:09;100696.84;;;16.27;50.83
25238;BME280;13185;50.872;5.306;2023-04-21T12:10:08;100691.72;;;16.43;50.22
25238;BME280;13185;50.872;5.306;2023-04-21T12:12:39;100687.31;;;16.52;50.40
25238;BME280;13185;50.872;5.306;2023-04-21T12:15:06;100684.19;;;16.66;48.57
25238;BME280;13185;50.872;5.306;2023-04-21T12:17:52;100676.06;;;16.66;47.37
25238;BME280;13185;50.872;5.306;2023-04-21T12:20:21;100668.69;;;16.78;48.83
25238;BME280;13185;50.872;5.306;2023-04-21T12:22:47;100659.13;;;16.93;47.92
25238;BME280;13185;50.872;5.306;2023-04-21T12:25:13;100667.25;;;16.93;48.04
25238;BME280;13185;50.872;5.306;2023-04-21T12:27:49;100664.38;;;17.04;47.87
25238;BME280;13185;50.872;5.306;2023-04-21T12:30:15;100658.06;;;17.23;46.02
25238;BME280;13185;50.872;5.306;2023-04-21T12:32:41;100653.19;;;17.26;46.75
25238;BME280;13185;50.872;5.306;2023-04-21T12:35:07;100649.75;;;17.34;45.74
25238;BME280;13185;50.872;5.306;2023-04-21T12:37:33;100654.63;;;17.30;46.44
25238;BME280;13185;50.872;5.306;2023-04-21T12:39:58;100662.56;;;17.42;47.56
25238;BME280;13185;50.872;5.306;2023-04-21T12:42:24;100663.47;;;17.60;46.17
25238;BME280;13185;50.872;5.306;2023-04-21T12:44:49;100654.91;;;17.74;46.03
25238;BME280;13185;50.872;5.306;2023-04-21T12:47:15;100653.03;;;17.75;43.69
25238;BME280;13185;50.872;5.306;2023-04-21T12:49:41;100653.91;;;17.66;44.26
25238;BME280;13185;50.872;5.306;2023-04-21T12:52:06;100649.19;;;17.68;44.53
25238;BME280;13185;50.872;5.306;2023-04-21T12:54:32;100651.88;;;17.77;45.37
25238;BME280;13185;50.872;5.306;2023-04-21T12:56:58;100649.69;;;17.81;45.50